Mount Olive, North Carolina
Current Conditions -  °F | °C
As of 11:33 AM on Saturday 20 Dec 2014 (Local Time) from KGSB Reporting Station
Unknown Precip Unknown Precip  
Wind Chill: 37°   Ceiling: Unl
Heat Index: 37°   Visibility: 10mi
Dew Point: 37°   Wind: 1mph
Humidity: 100%   Direction: 360°N
Pressure: 30.28"   Gusts: NA
Location:  35.2°N, 78.07°W
Report Text: KGSB 201633Z AUTO 36001KT 10SM UP SCT055 03/03 A3028 RMK AO2 UPE1628 $
Loading
Personal Weather Stations






























Interactive Weather Map New forecast layout! Learn more

10-Day Weather Forecast

Advertisements
Track Severe Weather on mobile